createdAt,value
2017-09-26T00:00:05.331Z,23.14
2017-09-26T00:00:45.786Z,23.1
2017-09-26T00:01:26.241Z,23.14
2017-09-26T00:02:06.695Z,23.1
2017-09-26T00:02:47.145Z,23.14
2017-09-26T00:03:27.595Z,23.14
2017-09-26T00:04:08.053Z,23.14
2017-09-26T00:04:48.504Z,23.13
2017-09-26T00:05:28.956Z,23.11
2017-09-26T00:06:09.412Z,23.16
2017-09-26T00:06:49.872Z,23.16
2017-09-26T00:07:30.324Z,23.17
2017-09-26T00:08:10.766Z,23.18
2017-09-26T00:08:51.222Z,23.16
2017-09-26T00:09:31.671Z,23.11
2017-09-26T00:10:12.124Z,23.18
2017-09-26T00:10:52.578Z,23.1
2017-09-26T00:11:33.034Z,23.13
2017-09-26T00:12:13.484Z,23.11
2017-09-26T00:12:53.934Z,23.13
2017-09-26T00:13:34.392Z,23.2
2017-09-26T00:14:14.844Z,23.14
2017-09-26T00:14:55.300Z,23.14
2017-09-26T00:15:35.750Z,23.17
2017-09-26T00:16:16.212Z,23.08
2017-09-26T00:16:56.655Z,23.1
2017-09-26T00:17:37.108Z,23.14
2017-09-26T00:18:17.562Z,23.18
2017-09-26T00:18:58.012Z,23.17
2017-09-26T00:19:38.480Z,23.14
2017-09-26T00:20:18.926Z,23.11
2017-09-26T00:20:59.381Z,23.18
2017-09-26T00:21:39.836Z,23.2
2017-09-26T00:22:20.284Z,23.16
2017-09-26T00:23:00.752Z,23.13
2017-09-26T00:23:41.217Z,23.14
2017-09-26T00:24:21.666Z,23.14
2017-09-26T00:25:02.134Z,23.13
2017-09-26T00:25:42.595Z,23.13
2017-09-26T00:26:23.065Z,23.21
2017-09-26T00:27:03.523Z,23.21
2017-09-26T00:27:43.974Z,23.16
2017-09-26T00:28:24.436Z,23.17
2017-09-26T00:29:04.893Z,23.13
2017-09-26T00:29:45.355Z,23.14
2017-09-26T00:30:25.813Z,23.14
2017-09-26T00:31:06.261Z,23.23
2017-09-26T00:31:46.725Z,23.17
2017-09-26T00:32:27.186Z,23.16
2017-09-26T00:33:07.653Z,23.11
2017-09-26T00:33:48.107Z,23.13
2017-09-26T00:34:28.558Z,23.1
2017-09-26T00:35:09.011Z,23.16
2017-09-26T00:35:49.468Z,23.17
2017-09-26T00:36:29.947Z,23.1
2017-09-26T00:37:10.376Z,23.13
2017-09-26T00:37:50.841Z,23.1
2017-09-26T00:38:31.298Z,23.17
2017-09-26T00:39:11.767Z,23.11
2017-09-26T00:39:52.225Z,23.1
2017-09-26T00:40:32.693Z,23.11
2017-09-26T00:41:13.154Z,23.13
2017-09-26T00:41:53.617Z,23.08
2017-09-26T00:42:34.082Z,23.08
2017-09-26T00:43:14.538Z,23.06
2017-09-26T00:43:54.992Z,23.14
2017-09-26T00:44:35.460Z,23.07
2017-09-26T00:45:15.910Z,23.08
2017-09-26T00:45:56.369Z,23.13
2017-09-26T00:46:36.820Z,23.13
2017-09-26T00:47:17.278Z,23.11
2017-09-26T00:47:57.729Z,23.14
2017-09-26T00:48:38.189Z,23.04
2017-09-26T00:49:18.636Z,23.07
2017-09-26T00:49:59.088Z,23.02
2017-09-26T00:50:39.541Z,23.07
2017-09-26T00:51:19.994Z,23.08
2017-09-26T00:52:00.454Z,23.02
2017-09-26T00:52:40.905Z,23.07
2017-09-26T00:53:21.365Z,23.02
2017-09-26T00:54:01.813Z,23.01
2017-09-26T00:54:42.273Z,23.11
2017-09-26T00:55:22.728Z,22.99
2017-09-26T00:56:03.189Z,22.98
2017-09-26T00:56:43.654Z,23.01
2017-09-26T00:57:24.097Z,22.98
2017-09-26T00:58:04.549Z,23.02
2017-09-26T00:58:45.001Z,23.06
2017-09-26T00:59:25.445Z,23.02
2017-09-26T01:00:05.903Z,23.08
2017-09-26T01:00:46.357Z,22.98
2017-09-26T01:01:26.819Z,23.06
2017-09-26T01:02:07.275Z,22.99
2017-09-26T01:02:47.730Z,22.99
2017-09-26T01:03:28.181Z,22.99
2017-09-26T01:04:08.640Z,23.08
2017-09-26T01:04:49.101Z,23.06
2017-09-26T01:05:29.548Z,23.02
2017-09-26T01:06:10.004Z,22.99
2017-09-26T01:06:50.458Z,23.01
2017-09-26T01:07:30.910Z,23.04
2017-09-26T01:08:11.378Z,23.04
2017-09-26T01:08:51.823Z,23.07
2017-09-26T01:09:32.283Z,23.02
2017-09-26T01:10:12.718Z,23.04
2017-09-26T01:10:53.181Z,22.98
2017-09-26T01:11:33.632Z,23.01
2017-09-26T01:12:14.084Z,22.98
2017-09-26T01:12:54.549Z,23.01
2017-09-26T01:13:35.000Z,22.96
2017-09-26T01:14:15.456Z,23.01
2017-09-26T01:14:55.912Z,23.02
2017-09-26T01:15:36.369Z,23.02
2017-09-26T01:16:16.827Z,22.99
2017-09-26T01:16:57.285Z,23.01
2017-09-26T01:17:37.748Z,22.96
2017-09-26T01:18:18.205Z,23.02
2017-09-26T01:18:58.666Z,22.96
2017-09-26T01:19:39.117Z,22.98
2017-09-26T01:20:19.572Z,23.04
2017-09-26T01:21:00.031Z,22.99
2017-09-26T01:21:40.485Z,22.99
2017-09-26T01:22:20.935Z,22.93
2017-09-26T01:23:01.385Z,22.96
2017-09-26T01:23:41.833Z,22.99
2017-09-26T01:24:22.292Z,22.96
2017-09-26T01:25:02.752Z,23.01
2017-09-26T01:25:43.203Z,22.96
2017-09-26T01:26:23.661Z,22.93
2017-09-26T01:27:04.121Z,22.96
2017-09-26T01:27:44.579Z,22.95
2017-09-26T01:28:25.035Z,22.92
2017-09-26T01:29:05.486Z,22.99
2017-09-26T01:29:45.933Z,22.95
2017-09-26T01:30:26.384Z,22.93
2017-09-26T01:31:06.841Z,22.99
2017-09-26T01:31:47.298Z,22.96
2017-09-26T01:32:27.746Z,22.96
2017-09-26T01:33:08.201Z,22.99
2017-09-26T01:33:48.656Z,22.95
2017-09-26T01:34:29.116Z,22.96
2017-09-26T01:35:09.564Z,22.92
2017-09-26T01:35:50.014Z,22.91
2017-09-26T01:36:30.477Z,22.89
2017-09-26T01:37:10.904Z,22.96
2017-09-26T01:37:51.346Z,22.95
2017-09-26T01:38:31.778Z,22.93
2017-09-26T01:39:12.236Z,22.93
2017-09-26T01:39:52.698Z,22.91
2017-09-26T01:40:33.140Z,22.95
2017-09-26T01:41:13.588Z,22.93
2017-09-26T01:41:54.047Z,22.92
2017-09-26T01:42:34.496Z,22.91
2017-09-26T01:43:14.951Z,22.93
2017-09-26T01:43:55.407Z,22.93
2017-09-26T01:44:35.859Z,22.98
2017-09-26T01:45:16.321Z,22.96
2017-09-26T01:45:56.798Z,22.99
2017-09-26T01:46:37.263Z,22.91
2017-09-26T01:47:17.716Z,22.93
2017-09-26T01:47:58.174Z,22.91
2017-09-26T01:48:38.633Z,22.95
2017-09-26T01:49:19.092Z,22.89
2017-09-26T01:49:59.551Z,22.88
2017-09-26T01:50:40.000Z,22.95
2017-09-26T01:51:20.455Z,22.93
2017-09-26T01:52:00.914Z,22.91
2017-09-26T01:52:41.371Z,22.96
2017-09-26T01:53:21.836Z,22.89
2017-09-26T01:54:02.298Z,22.96
2017-09-26T01:54:42.746Z,22.93
2017-09-26T01:55:23.201Z,22.88
2017-09-26T01:56:03.657Z,22.92
2017-09-26T01:56:44.114Z,22.92
2017-09-26T01:57:24.580Z,22.91
2017-09-26T01:58:05.039Z,22.92
2017-09-26T01:58:45.506Z,22.93
2017-09-26T01:59:25.943Z,22.88
2017-09-26T02:00:06.405Z,22.92
2017-09-26T02:00:46.861Z,22.92
2017-09-26T02:01:27.347Z,22.92
2017-09-26T02:02:07.768Z,22.93
2017-09-26T02:02:48.220Z,22.88
2017-09-26T02:03:28.674Z,22.92
2017-09-26T02:04:09.133Z,22.92
2017-09-26T02:04:49.618Z,22.92
2017-09-26T02:05:30.076Z,22.81
2017-09-26T02:06:10.536Z,22.81
2017-09-26T02:06:51.000Z,22.89
2017-09-26T02:07:31.448Z,22.92
2017-09-26T02:08:11.906Z,22.91
2017-09-26T02:08:52.356Z,22.91
2017-09-26T02:09:32.823Z,22.93
2017-09-26T02:10:13.280Z,22.92
2017-09-26T02:10:53.730Z,22.92
2017-09-26T02:11:34.188Z,22.93
2017-09-26T02:12:14.646Z,22.89
2017-09-26T02:12:55.103Z,22.86
2017-09-26T02:13:35.560Z,22.86
2017-09-26T02:14:16.010Z,22.81
2017-09-26T02:14:56.471Z,22.88
2017-09-26T02:15:36.923Z,22.89
2017-09-26T02:16:17.381Z,22.92
2017-09-26T02:16:57.830Z,22.92
2017-09-26T02:17:38.285Z,22.84
2017-09-26T02:18:18.734Z,22.88
2017-09-26T02:18:59.185Z,22.92
2017-09-26T02:19:39.644Z,22.93
2017-09-26T02:20:20.098Z,22.91
2017-09-26T02:21:00.552Z,22.91
2017-09-26T02:21:40.995Z,22.88
2017-09-26T02:22:21.456Z,22.92
2017-09-26T02:23:01.915Z,22.88
2017-09-26T02:23:42.374Z,22.86
2017-09-26T02:24:22.833Z,22.92
2017-09-26T02:25:03.289Z,22.81
2017-09-26T02:25:43.742Z,22.84
2017-09-26T02:26:24.197Z,22.89
2017-09-26T02:27:04.654Z,22.93
2017-09-26T02:27:45.100Z,22.8
2017-09-26T02:28:25.554Z,22.91
2017-09-26T02:29:06.008Z,22.81
2017-09-26T02:29:46.467Z,22.93
2017-09-26T02:30:26.925Z,22.91
2017-09-26T02:31:07.378Z,22.83
2017-09-26T02:31:47.837Z,22.89
2017-09-26T02:32:28.296Z,22.91
2017-09-26T02:33:08.753Z,22.95
2017-09-26T02:33:49.210Z,22.86
2017-09-26T02:34:29.675Z,22.86
2017-09-26T02:35:10.133Z,22.89
2017-09-26T02:35:50.585Z,22.89
2017-09-26T02:36:31.037Z,22.95
2017-09-26T02:37:11.493Z,22.86
2017-09-26T02:37:51.953Z,22.86
2017-09-26T02:38:32.401Z,22.86
2017-09-26T02:39:12.859Z,22.81
2017-09-26T02:39:53.358Z,22.84
2017-09-26T02:40:33.811Z,22.83
2017-09-26T02:41:14.280Z,22.88
2017-09-26T02:41:54.728Z,22.95
2017-09-26T02:42:35.170Z,22.84
2017-09-26T02:43:15.623Z,22.89
2017-09-26T02:43:56.083Z,22.81
2017-09-26T02:44:36.520Z,22.88
2017-09-26T02:45:16.968Z,22.92
2017-09-26T02:45:57.416Z,22.92
2017-09-26T02:46:37.859Z,22.86
2017-09-26T02:47:18.310Z,22.88
2017-09-26T02:47:58.758Z,22.84
2017-09-26T02:48:39.212Z,22.91
2017-09-26T02:49:19.662Z,22.92
2017-09-26T02:50:00.109Z,22.81
2017-09-26T02:50:40.555Z,22.81
2017-09-26T02:51:20.996Z,22.81
2017-09-26T02:52:01.454Z,22.81
2017-09-26T02:52:41.898Z,22.81
2017-09-26T02:53:22.349Z,22.83
2017-09-26T02:54:02.805Z,22.81
2017-09-26T02:54:43.267Z,22.84
2017-09-26T02:55:23.720Z,22.88
2017-09-26T02:56:04.172Z,22.81
2017-09-26T02:56:44.623Z,22.86
2017-09-26T02:57:25.074Z,22.86
2017-09-26T02:58:05.539Z,22.81
2017-09-26T02:58:45.996Z,22.81
2017-09-26T02:59:26.451Z,22.86
2017-09-26T03:00:06.914Z,22.88
2017-09-26T03:00:47.368Z,22.81
2017-09-26T03:01:27.825Z,22.84
2017-09-26T03:02:08.276Z,22.81
2017-09-26T03:02:48.720Z,22.88
2017-09-26T03:03:29.177Z,22.83
2017-09-26T03:04:09.634Z,22.78
2017-09-26T03:04:50.084Z,22.81
2017-09-26T03:05:30.539Z,22.77
2017-09-26T03:06:10.999Z,22.84
2017-09-26T03:06:51.452Z,22.8
2017-09-26T03:07:31.915Z,22.77
2017-09-26T03:08:12.371Z,22.78
2017-09-26T03:08:52.828Z,22.83
2017-09-26T03:09:33.286Z,22.83
2017-09-26T03:10:13.742Z,22.83
2017-09-26T03:10:54.199Z,22.83
2017-09-26T03:11:34.650Z,22.84
2017-09-26T03:12:15.101Z,22.81
2017-09-26T03:12:55.561Z,22.84
2017-09-26T03:13:36.012Z,22.8
2017-09-26T03:14:16.467Z,22.81
2017-09-26T03:14:56.916Z,22.88
2017-09-26T03:15:37.369Z,22.8
2017-09-26T03:16:17.825Z,22.81
2017-09-26T03:16:58.288Z,22.78
2017-09-26T03:17:38.748Z,22.81
2017-09-26T03:18:19.208Z,22.88
2017-09-26T03:18:59.661Z,22.81
2017-09-26T03:19:40.118Z,22.78
2017-09-26T03:20:20.582Z,22.81
2017-09-26T03:21:01.024Z,22.81
2017-09-26T03:21:41.484Z,22.81
2017-09-26T03:22:21.941Z,22.84
2017-09-26T03:23:02.402Z,22.83
2017-09-26T03:23:42.852Z,22.83
2017-09-26T03:24:23.308Z,22.78
2017-09-26T03:25:03.769Z,22.76
2017-09-26T03:25:44.227Z,22.76
2017-09-26T03:26:24.684Z,22.81
2017-09-26T03:27:05.141Z,22.84
2017-09-26T03:27:45.599Z,22.81
2017-09-26T03:28:26.059Z,22.8
2017-09-26T03:29:06.517Z,22.86
2017-09-26T03:29:46.966Z,22.83
2017-09-26T03:30:27.439Z,22.8
2017-09-26T03:31:07.886Z,22.77
2017-09-26T03:31:48.342Z,22.78
2017-09-26T03:32:28.795Z,22.8
2017-09-26T03:33:09.259Z,22.81
2017-09-26T03:33:49.716Z,22.73
2017-09-26T03:34:30.172Z,22.81
2017-09-26T03:35:10.636Z,22.74
2017-09-26T03:35:51.094Z,22.8
2017-09-26T03:36:31.552Z,22.67
2017-09-26T03:37:11.996Z,22.77
2017-09-26T03:37:52.474Z,22.71
2017-09-26T03:38:32.911Z,22.73
2017-09-26T03:39:13.366Z,22.76
2017-09-26T03:39:53.823Z,22.83
2017-09-26T03:40:34.308Z,22.8
2017-09-26T03:41:14.767Z,22.81
2017-09-26T03:41:55.224Z,22.88
2017-09-26T03:42:35.679Z,22.81
2017-09-26T03:43:16.181Z,22.78
2017-09-26T03:43:56.664Z,22.81
2017-09-26T03:44:37.110Z,22.78
2017-09-26T03:45:17.573Z,22.78
2017-09-26T03:45:58.028Z,22.8
2017-09-26T03:46:38.484Z,22.8
2017-09-26T03:47:18.945Z,22.81
2017-09-26T03:47:59.404Z,22.84
2017-09-26T03:48:39.856Z,22.77
2017-09-26T03:49:20.313Z,22.84
2017-09-26T03:50:00.764Z,22.86
2017-09-26T03:50:41.219Z,22.86
2017-09-26T03:51:21.681Z,22.84
2017-09-26T03:52:02.138Z,22.93
2017-09-26T03:52:42.612Z,22.83
2017-09-26T03:53:23.060Z,22.92
2017-09-26T03:54:03.516Z,22.78
2017-09-26T03:54:43.977Z,22.83
2017-09-26T03:55:24.430Z,22.84
2017-09-26T03:56:04.878Z,22.84
2017-09-26T03:56:45.332Z,22.88
2017-09-26T03:57:25.791Z,22.91
2017-09-26T03:58:06.249Z,22.92
2017-09-26T03:58:46.714Z,22.93
2017-09-26T03:59:27.171Z,22.93
2017-09-26T04:00:07.632Z,22.89
2017-09-26T04:00:48.101Z,22.95
2017-09-26T04:01:28.539Z,22.91
2017-09-26T04:02:09.000Z,22.99
2017-09-26T04:02:49.450Z,22.96
2017-09-26T04:03:29.911Z,22.96
2017-09-26T04:04:10.356Z,23.01
2017-09-26T04:04:50.806Z,22.96
2017-09-26T04:05:31.264Z,22.99
2017-09-26T04:06:11.724Z,22.98
2017-09-26T04:06:52.169Z,23.04
2017-09-26T04:07:32.628Z,23.06
2017-09-26T04:08:13.099Z,23.06
2017-09-26T04:08:53.560Z,23.01
2017-09-26T04:09:34.018Z,23.11
2017-09-26T04:10:14.474Z,23.02
2017-09-26T04:10:54.937Z,23.11
2017-09-26T04:11:35.396Z,23.04
2017-09-26T04:12:15.845Z,23.07
2017-09-26T04:12:56.300Z,23.08
2017-09-26T04:13:36.764Z,23.17
2017-09-26T04:14:17.220Z,23.08
2017-09-26T04:14:57.679Z,23.18
2017-09-26T04:15:38.131Z,23.18
2017-09-26T04:16:18.581Z,23.11
2017-09-26T04:16:59.032Z,23.16
2017-09-26T04:17:39.490Z,23.18
2017-09-26T04:18:19.945Z,23.18
2017-09-26T04:19:00.398Z,23.11
2017-09-26T04:19:40.850Z,23.1
2017-09-26T04:20:21.303Z,23.17
2017-09-26T04:21:01.761Z,23.1
2017-09-26T04:21:42.220Z,23.21
2017-09-26T04:22:22.677Z,23.23
2017-09-26T04:23:03.136Z,23.26
2017-09-26T04:23:43.588Z,23.32
2017-09-26T04:24:24.061Z,23.28
2017-09-26T04:25:04.493Z,23.26
2017-09-26T04:25:44.953Z,23.37
2017-09-26T04:27:37.586Z,23.37
2017-09-26T04:28:18.037Z,23.26
2017-09-26T04:28:58.491Z,23.28
2017-09-26T04:29:38.944Z,23.36
2017-09-26T04:30:19.400Z,23.29
2017-09-26T04:30:59.859Z,23.28
2017-09-26T04:31:40.317Z,23.28
2017-09-26T04:32:20.761Z,23.29
2017-09-26T04:33:01.217Z,23.4
2017-09-26T04:33:41.671Z,23.29
2017-09-26T04:34:22.124Z,23.26
2017-09-26T04:35:02.576Z,23.32
2017-09-26T04:35:43.028Z,23.29
2017-09-26T04:36:23.485Z,23.26
2017-09-26T04:37:03.938Z,23.29
2017-09-26T04:37:44.390Z,23.32
2017-09-26T04:38:24.835Z,23.34
2017-09-26T04:39:05.273Z,23.33
2017-09-26T04:39:45.726Z,23.33
2017-09-26T04:40:26.179Z,23.36
2017-09-26T04:41:06.632Z,23.32
2017-09-26T04:41:47.085Z,23.29
2017-09-26T04:42:27.538Z,23.34
2017-09-26T04:43:07.994Z,23.34
2017-09-26T04:43:48.442Z,23.37
2017-09-26T04:44:28.908Z,23.34
2017-09-26T04:45:09.365Z,23.26
2017-09-26T04:45:49.814Z,23.32
2017-09-26T04:46:30.272Z,23.33
2017-09-26T04:47:10.718Z,23.26
2017-09-26T04:47:51.251Z,23.37
2017-09-26T04:48:31.736Z,23.32
2017-09-26T04:49:12.193Z,23.36
2017-09-26T04:49:52.640Z,23.33
2017-09-26T04:50:33.094Z,23.37
2017-09-26T04:51:13.546Z,23.36
2017-09-26T04:51:54.007Z,23.32
2017-09-26T04:52:34.477Z,23.32
2017-09-26T04:53:14.927Z,23.32
2017-09-26T04:53:55.386Z,23.36
2017-09-26T04:54:35.839Z,23.29
2017-09-26T04:55:16.291Z,23.26
2017-09-26T04:55:56.755Z,23.25
2017-09-26T04:56:37.206Z,23.26
2017-09-26T04:57:17.662Z,23.14
2017-09-26T04:57:58.116Z,23.23
2017-09-26T04:58:38.564Z,23.23
2017-09-26T04:59:19.012Z,23.14
2017-09-26T04:59:59.471Z,23.13
2017-09-26T05:00:39.957Z,23.07
2017-09-26T05:01:20.412Z,23.17
2017-09-26T05:02:00.860Z,23.17
2017-09-26T05:02:41.329Z,23.13
2017-09-26T05:03:21.761Z,23.17
2017-09-26T05:04:02.218Z,23.23
2017-09-26T05:04:42.698Z,23.16
2017-09-26T05:05:23.127Z,23.2
2017-09-26T05:06:03.572Z,23.17
2017-09-26T05:06:44.019Z,23.16
2017-09-26T05:07:24.469Z,23.17
2017-09-26T05:08:04.931Z,23.13
2017-09-26T05:08:45.375Z,23.08
2017-09-26T05:09:25.835Z,23.18
2017-09-26T05:10:06.294Z,23.11
2017-09-26T05:10:46.750Z,23.14
2017-09-26T05:11:27.196Z,23.1
2017-09-26T05:12:07.646Z,23.07
2017-09-26T05:12:48.102Z,23.04
2017-09-26T05:13:28.559Z,23.07
2017-09-26T05:14:09.021Z,23.08
2017-09-26T05:14:49.481Z,23.04
2017-09-26T05:15:29.935Z,23.11
2017-09-26T05:16:10.390Z,23.07
2017-09-26T05:16:50.849Z,22.98
2017-09-26T05:17:31.299Z,23.14
2017-09-26T05:18:11.750Z,23.01
2017-09-26T05:18:52.203Z,23.1
2017-09-26T05:19:32.670Z,23.06
2017-09-26T05:20:13.165Z,23.01
2017-09-26T05:20:53.576Z,23.02
2017-09-26T05:21:34.046Z,23.01
2017-09-26T05:22:14.500Z,22.99
2017-09-26T05:22:54.948Z,23.02
2017-09-26T05:23:35.411Z,22.98
2017-09-26T05:24:15.866Z,23.01
2017-09-26T05:24:56.324Z,22.98
2017-09-26T05:25:36.781Z,22.96
2017-09-26T05:26:17.238Z,23.01
2017-09-26T05:26:57.697Z,22.98
2017-09-26T05:27:38.156Z,23.02
2017-09-26T05:28:18.621Z,23.06
2017-09-26T05:28:59.071Z,23.06
2017-09-26T05:29:39.520Z,23.02
2017-09-26T05:30:19.972Z,22.96
2017-09-26T05:31:00.426Z,23.06
2017-09-26T05:31:40.881Z,22.99
2017-09-26T05:32:21.338Z,23.01
2017-09-26T05:33:01.793Z,23.01
2017-09-26T05:33:42.252Z,23.04
2017-09-26T05:34:22.719Z,23.04
2017-09-26T05:35:03.159Z,22.99
2017-09-26T05:35:43.618Z,22.99
2017-09-26T05:36:24.076Z,23.01
2017-09-26T05:37:04.524Z,22.93
2017-09-26T05:37:44.983Z,23.01
2017-09-26T05:38:25.433Z,22.95
2017-09-26T05:39:05.885Z,22.95
2017-09-26T05:39:46.338Z,23.02
2017-09-26T05:40:26.787Z,23.06
2017-09-26T05:41:07.240Z,22.96
2017-09-26T05:41:47.688Z,22.99
2017-09-26T05:42:28.146Z,23.04
2017-09-26T05:43:08.600Z,22.98
2017-09-26T05:43:49.057Z,22.95
2017-09-26T05:44:29.502Z,22.95
2017-09-26T05:45:09.952Z,22.99
2017-09-26T05:45:50.379Z,22.98
2017-09-26T05:46:30.823Z,22.93
2017-09-26T05:47:11.269Z,23.01
2017-09-26T05:47:51.745Z,22.98
2017-09-26T05:48:32.222Z,23.04
2017-09-26T05:49:12.659Z,22.99
2017-09-26T05:49:53.115Z,22.95
2017-09-26T05:50:33.562Z,22.96
2017-09-26T05:51:14.028Z,22.95
2017-09-26T05:51:54.484Z,22.95
2017-09-26T05:52:34.940Z,22.95
2017-09-26T05:53:15.395Z,22.99
2017-09-26T05:53:55.844Z,23.01
2017-09-26T05:54:36.290Z,23.02
2017-09-26T05:55:16.736Z,23.06
2017-09-26T05:55:57.176Z,22.99
2017-09-26T05:56:37.633Z,22.93
2017-09-26T05:57:18.090Z,22.99
2017-09-26T05:57:58.545Z,23.02
2017-09-26T05:58:38.987Z,23.02
2017-09-26T05:59:19.427Z,23.04
2017-09-26T05:59:59.880Z,22.99
2017-09-26T06:00:40.327Z,23.06
2017-09-26T06:01:20.783Z,22.98
2017-09-26T06:02:01.234Z,23.04
2017-09-26T06:02:41.687Z,23.06
2017-09-26T06:03:22.142Z,22.96
2017-09-26T06:04:02.594Z,22.98
2017-09-26T06:04:43.046Z,22.96
2017-09-26T06:05:23.500Z,23.02
2017-09-26T06:06:03.968Z,22.99
2017-09-26T06:06:44.421Z,23.06
2017-09-26T06:07:24.879Z,23.01
2017-09-26T06:08:05.331Z,22.98
2017-09-26T06:08:45.789Z,23.01
2017-09-26T06:09:26.245Z,23.01
2017-09-26T06:10:06.701Z,23.02
2017-09-26T06:10:47.175Z,23.02
2017-09-26T06:11:27.635Z,22.99
2017-09-26T06:12:08.086Z,23.04
2017-09-26T06:12:48.540Z,22.99
2017-09-26T06:13:28.988Z,22.98
2017-09-26T06:14:09.437Z,22.99
2017-09-26T06:14:49.884Z,22.99
2017-09-26T06:15:30.316Z,23.06
2017-09-26T06:16:10.760Z,23.06
2017-09-26T06:16:51.212Z,22.99
2017-09-26T06:17:31.655Z,22.95
2017-09-26T06:18:12.094Z,22.96
2017-09-26T06:18:52.535Z,22.98
2017-09-26T06:19:32.986Z,22.96
2017-09-26T06:20:13.441Z,22.98
2017-09-26T06:20:53.890Z,22.98
2017-09-26T06:21:34.367Z,22.96
2017-09-26T06:22:14.791Z,22.91
2017-09-26T06:22:55.242Z,22.99
2017-09-26T06:23:35.694Z,23.02
2017-09-26T06:24:16.136Z,22.98
2017-09-26T06:24:56.577Z,23.01
2017-09-26T06:25:37.032Z,22.96
2017-09-26T06:26:17.478Z,22.99
2017-09-26T06:26:57.936Z,23.01
2017-09-26T06:27:38.401Z,23.02
2017-09-26T06:28:18.853Z,22.99
2017-09-26T06:28:59.309Z,23.04
2017-09-26T06:29:39.781Z,23.06
2017-09-26T06:30:20.215Z,23.02
2017-09-26T06:31:00.666Z,22.98
2017-09-26T06:31:41.133Z,22.99
2017-09-26T06:32:21.583Z,22.96
2017-09-26T06:33:02.039Z,22.99
2017-09-26T06:33:42.486Z,22.96
2017-09-26T06:34:22.946Z,22.93
2017-09-26T06:35:03.402Z,23.01
2017-09-26T06:35:43.844Z,22.95
2017-09-26T06:36:24.308Z,22.99
2017-09-26T06:37:04.761Z,22.92
2017-09-26T06:37:45.213Z,22.98
2017-09-26T06:38:25.675Z,23.01
2017-09-26T06:39:06.125Z,22.96
2017-09-26T06:39:46.579Z,22.96
2017-09-26T06:40:27.037Z,22.93
2017-09-26T06:41:07.480Z,22.98
2017-09-26T06:41:47.939Z,22.92
2017-09-26T06:42:28.390Z,22.91
2017-09-26T06:43:08.843Z,22.95
2017-09-26T06:43:49.301Z,22.86
2017-09-26T06:44:29.757Z,22.95
2017-09-26T06:45:10.209Z,22.92
2017-09-26T06:45:50.664Z,22.93
2017-09-26T06:46:31.115Z,22.92
2017-09-26T06:47:11.586Z,22.88
2017-09-26T06:47:52.041Z,22.96
2017-09-26T06:48:32.494Z,22.91
2017-09-26T06:49:12.950Z,22.96
2017-09-26T06:49:53.399Z,22.96
2017-09-26T06:50:33.851Z,22.93
2017-09-26T06:51:14.297Z,22.88
2017-09-26T06:51:54.760Z,22.81
2017-09-26T06:52:35.211Z,22.88
2017-09-26T06:53:15.664Z,22.95
2017-09-26T06:53:56.126Z,22.88
2017-09-26T06:54:36.589Z,22.98
2017-09-26T06:55:17.047Z,22.92
2017-09-26T06:55:57.503Z,22.84
2017-09-26T06:56:37.961Z,22.88
2017-09-26T06:57:18.418Z,22.86
2017-09-26T06:57:58.869Z,22.88
2017-09-26T06:58:39.317Z,22.92
2017-09-26T06:59:19.768Z,22.98
2017-09-26T07:00:00.248Z,22.98
2017-09-26T07:00:40.694Z,22.92
2017-09-26T07:01:21.155Z,22.86
2017-09-26T07:02:01.613Z,22.92
2017-09-26T07:02:42.061Z,22.88
2017-09-26T07:03:22.518Z,22.86
2017-09-26T07:04:02.977Z,22.89
2017-09-26T07:04:43.437Z,22.88
2017-09-26T07:05:23.890Z,22.96
2017-09-26T07:06:04.347Z,22.93
2017-09-26T07:06:44.797Z,22.98
2017-09-26T07:07:25.244Z,22.96
2017-09-26T07:08:05.688Z,22.98
2017-09-26T07:08:46.139Z,22.98
2017-09-26T07:09:26.593Z,22.96
2017-09-26T07:10:07.048Z,22.98
2017-09-26T07:10:47.507Z,22.93
2017-09-26T07:11:27.957Z,22.95
2017-09-26T07:12:08.403Z,22.95
2017-09-26T07:12:48.865Z,22.95
2017-09-26T07:13:29.317Z,22.93
2017-09-26T07:14:09.773Z,22.96
2017-09-26T07:14:50.233Z,23.04
2017-09-26T07:15:30.695Z,23.02
2017-09-26T07:16:11.142Z,23.02
2017-09-26T07:16:51.599Z,23.04
2017-09-26T07:17:32.047Z,22.99
2017-09-26T07:18:12.501Z,23.06
2017-09-26T07:18:52.957Z,23.08
2017-09-26T07:19:33.407Z,23.1
2017-09-26T07:20:13.863Z,22.95
2017-09-26T07:20:54.318Z,23.01
2017-09-26T07:21:34.782Z,23.1
2017-09-26T07:22:15.233Z,23.02
2017-09-26T07:22:55.686Z,22.98
2017-09-26T07:23:36.143Z,22.99
2017-09-26T07:24:16.601Z,22.99
2017-09-26T07:24:57.053Z,23.07
2017-09-26T07:25:37.512Z,23.08
2017-09-26T07:26:17.960Z,23.06
2017-09-26T07:26:58.412Z,23.04
2017-09-26T07:27:38.880Z,23.04
2017-09-26T07:28:19.332Z,23.08
2017-09-26T07:28:59.790Z,22.99
2017-09-26T07:29:40.245Z,23.01
2017-09-26T07:30:20.701Z,23.07
2017-09-26T07:31:01.149Z,23.06
2017-09-26T07:31:41.604Z,23.13
2017-09-26T07:32:22.055Z,23.08
2017-09-26T07:33:02.508Z,23.08
2017-09-26T07:33:42.966Z,23.08
2017-09-26T07:34:23.425Z,23.11
2017-09-26T07:35:03.879Z,23.13
2017-09-26T07:35:44.331Z,23.11
2017-09-26T07:36:24.793Z,23.11
2017-09-26T07:37:05.240Z,23.18
2017-09-26T07:37:45.693Z,23.1
2017-09-26T07:38:26.160Z,23.1
2017-09-26T07:39:06.617Z,23.1
2017-09-26T07:39:47.076Z,23.16
2017-09-26T07:40:27.532Z,23.11
2017-09-26T07:41:07.999Z,23.14
2017-09-26T07:41:48.447Z,23.11
2017-09-26T07:42:28.909Z,23.21
2017-09-26T07:43:09.367Z,23.18
2017-09-26T07:43:49.822Z,23.18
2017-09-26T07:44:30.289Z,23.13
2017-09-26T07:45:10.748Z,23.2
2017-09-26T07:45:51.203Z,23.08
2017-09-26T07:46:31.663Z,23.13
2017-09-26T07:47:12.112Z,23.2
2017-09-26T07:47:52.567Z,23.13
2017-09-26T07:48:33.013Z,23.17
2017-09-26T07:49:13.477Z,23.18
2017-09-26T07:49:53.926Z,23.14
2017-09-26T07:50:34.387Z,23.16
2017-09-26T07:51:14.830Z,23.11
2017-09-26T07:51:55.279Z,23.16
2017-09-26T07:52:35.735Z,23.11
2017-09-26T07:53:16.183Z,23.13
2017-09-26T07:53:56.634Z,23.13
2017-09-26T07:54:37.100Z,23.16
2017-09-26T07:55:17.548Z,23.07
2017-09-26T07:55:58.012Z,23.18
2017-09-26T07:56:38.463Z,23.17
2017-09-26T07:57:18.918Z,23.23
2017-09-26T07:57:59.376Z,23.16
2017-09-26T07:58:39.840Z,23.13
2017-09-26T07:59:20.275Z,23.17
2017-09-26T08:00:00.732Z,23.17
2017-09-26T08:00:41.185Z,23.17
2017-09-26T08:01:21.648Z,23.17
2017-09-26T08:02:02.098Z,23.13
2017-09-26T08:02:42.566Z,23.14
2017-09-26T08:03:23.024Z,23.16
2017-09-26T08:04:03.481Z,23.21
2017-09-26T08:04:43.941Z,23.14
2017-09-26T08:05:24.410Z,23.14
2017-09-26T08:06:04.864Z,23.17
2017-09-26T08:06:45.312Z,23.18
2017-09-26T08:07:25.768Z,23.17
2017-09-26T08:08:06.217Z,23.16
2017-09-26T08:08:46.673Z,23.13
2017-09-26T08:09:27.134Z,23.18
2017-09-26T08:10:07.586Z,23.16
2017-09-26T08:10:48.040Z,23.13
2017-09-26T08:11:28.505Z,23.17
2017-09-26T08:12:08.960Z,23.18
2017-09-26T08:12:49.412Z,23.16
2017-09-26T08:13:29.873Z,23.16
2017-09-26T08:14:10.324Z,23.23
2017-09-26T08:14:50.767Z,23.14
2017-09-26T08:15:31.231Z,23.23
2017-09-26T08:16:11.688Z,23.08
2017-09-26T08:16:52.132Z,23.14
2017-09-26T08:17:32.594Z,23.13
2017-09-26T08:18:13.052Z,23.17
2017-09-26T08:18:53.507Z,23.17
2017-09-26T08:19:33.944Z,23.11
2017-09-26T08:20:14.421Z,23.13
2017-09-26T08:20:54.872Z,23.1
2017-09-26T08:21:35.329Z,23.17
2017-09-26T08:22:15.791Z,23.13
2017-09-26T08:22:56.254Z,23.11
2017-09-26T08:23:36.704Z,23.2
2017-09-26T08:24:17.160Z,23.25
2017-09-26T08:24:57.621Z,23.21
2017-09-26T08:25:38.084Z,23.18
2017-09-26T08:26:18.539Z,23.18
2017-09-26T08:26:58.990Z,23.21
2017-09-26T08:27:39.443Z,23.28
2017-09-26T08:28:19.895Z,23.28
2017-09-26T08:29:00.351Z,23.32
2017-09-26T08:29:40.806Z,23.32
2017-09-26T08:30:21.254Z,23.21
2017-09-26T08:31:01.702Z,23.26
2017-09-26T08:31:42.162Z,23.26
2017-09-26T08:32:22.607Z,23.33
2017-09-26T08:33:03.060Z,23.25
2017-09-26T08:33:43.515Z,23.25
2017-09-26T08:34:23.967Z,23.29
2017-09-26T08:35:04.427Z,23.29
2017-09-26T08:35:44.871Z,23.32
2017-09-26T08:36:25.321Z,23.34
2017-09-26T08:37:05.779Z,23.26
2017-09-26T08:37:46.229Z,23.39
2017-09-26T08:38:26.688Z,23.34
2017-09-26T08:39:07.140Z,23.34
2017-09-26T08:39:47.587Z,23.29
2017-09-26T08:40:28.039Z,23.36
2017-09-26T08:41:08.647Z,23.28
2017-09-26T08:41:49.108Z,23.34
2017-09-26T08:43:42.408Z,23.26